createdAt,value
2023-02-12T00:02:16.772Z,7.34
2023-02-12T00:04:47.133Z,7.32
2023-02-12T00:07:20.170Z,7.40
2023-02-12T00:09:50.492Z,7.42
2023-02-12T00:12:20.782Z,7.35
2023-02-12T00:14:51.251Z,7.35
2023-02-12T00:17:21.651Z,7.33
2023-02-12T00:19:51.941Z,7.36
2023-02-12T00:22:24.853Z,7.32
2023-02-12T00:24:55.143Z,7.26
2023-02-12T00:27:25.836Z,7.13
2023-02-12T00:29:56.205Z,7.20
2023-02-12T00:32:26.566Z,7.22
2023-02-12T00:34:56.856Z,7.26
2023-02-12T00:37:29.757Z,7.28
2023-02-12T00:40:00.065Z,7.28
2023-02-12T00:42:30.404Z,7.34
2023-02-12T00:45:00.673Z,7.37
2023-02-12T00:47:33.732Z,7.43
2023-02-12T00:50:04.038Z,7.47
2023-02-12T00:52:37.057Z,7.47
2023-02-12T00:55:09.332Z,7.39
2023-02-12T00:57:39.730Z,7.41
2023-02-12T01:00:12.326Z,7.43
2023-02-12T01:02:42.634Z,7.45
2023-02-12T01:05:13.107Z,7.47
2023-02-12T01:07:46.186Z,7.50
2023-02-12T01:10:17.435Z,7.47
2023-02-12T01:12:47.772Z,7.42
2023-02-12T01:15:18.354Z,7.48
2023-02-12T01:17:48.956Z,7.51
2023-02-12T01:20:24.411Z,7.57
2023-02-12T01:22:58.890Z,7.57
2023-02-12T01:25:29.224Z,7.57
2023-02-12T01:27:59.752Z,7.57
2023-02-12T01:30:30.080Z,7.51
2023-02-12T01:33:00.742Z,7.50
2023-02-12T01:35:31.121Z,7.49
2023-02-12T01:38:04.151Z,7.54
2023-02-12T01:40:34.558Z,7.52
2023-02-12T01:43:05.488Z,7.56
2023-02-12T01:45:56.843Z,7.58
2023-02-12T01:48:30.993Z,7.53
2023-02-12T01:51:02.621Z,7.48
2023-02-12T01:53:41.185Z,7.52
2023-02-12T01:56:12.964Z,7.53
2023-02-12T01:58:47.093Z,7.56
2023-02-12T02:01:24.666Z,7.62
2023-02-12T02:04:02.477Z,7.59
2023-02-12T02:06:36.941Z,7.58
2023-02-12T02:09:10.145Z,7.56
2023-02-12T02:11:52.838Z,7.57
2023-02-12T02:14:35.386Z,7.58
2023-02-12T02:17:34.770Z,7.55
2023-02-12T02:20:45.741Z,7.52
2023-02-12T02:23:43.038Z,7.49
2023-02-12T02:26:35.917Z,7.45
2023-02-12T02:29:26.306Z,7.50
2023-02-12T02:32:06.584Z,7.50
2023-02-12T02:34:44.798Z,7.55
2023-02-12T02:37:22.040Z,7.49
2023-02-12T02:39:56.802Z,7.51
2023-02-12T02:42:33.020Z,7.47
2023-02-12T02:45:11.489Z,7.46
2023-02-12T02:47:49.980Z,7.48
2023-02-12T02:50:24.416Z,7.47
2023-02-12T02:53:00.459Z,7.47
2023-02-12T02:55:35.677Z,7.47
2023-02-12T02:58:13.440Z,7.48
2023-02-12T03:00:49.064Z,7.51
2023-02-12T03:03:27.592Z,7.52
2023-02-12T03:06:05.535Z,7.50
2023-02-12T03:08:41.968Z,7.46
2023-02-12T03:11:21.235Z,7.46
2023-02-12T03:13:57.660Z,7.41
2023-02-12T03:16:31.206Z,7.44
2023-02-12T03:19:11.541Z,7.46
2023-02-12T03:21:49.118Z,7.51
2023-02-12T03:24:26.117Z,7.51
2023-02-12T03:27:10.651Z,7.50
2023-02-12T03:29:41.193Z,7.46
2023-02-12T03:32:27.190Z,7.51
2023-02-12T03:35:13.235Z,7.50
2023-02-12T03:37:54.409Z,7.48
2023-02-12T03:40:32.089Z,7.44
2023-02-12T03:43:10.025Z,7.47
2023-02-12T03:45:49.540Z,7.55
2023-02-12T03:48:28.883Z,7.52
2023-02-12T03:51:07.377Z,7.52
2023-02-12T03:53:37.694Z,7.48
2023-02-12T03:56:14.108Z,7.55
2023-02-12T03:58:46.778Z,7.54
2023-02-12T04:01:17.912Z,7.60
2023-02-12T04:03:48.078Z,7.58
2023-02-12T04:06:29.182Z,7.59
2023-02-12T04:09:04.354Z,7.61
2023-02-12T04:11:48.050Z,7.60
2023-02-12T04:14:30.226Z,7.61
2023-02-12T04:17:11.627Z,7.67
2023-02-12T04:20:04.472Z,7.68
2023-02-12T04:22:53.264Z,7.69
2023-02-12T04:25:41.891Z,7.72
2023-02-12T04:28:21.224Z,7.72
2023-02-12T04:31:02.022Z,7.72
2023-02-12T04:33:40.584Z,7.64
2023-02-12T04:36:17.261Z,7.67
2023-02-12T04:38:55.513Z,7.67
2023-02-12T04:41:26.084Z,7.61
2023-02-12T04:43:56.868Z,7.62
2023-02-12T04:46:27.303Z,7.64
2023-02-12T04:49:01.415Z,7.61
2023-02-12T04:51:31.916Z,7.66
2023-02-12T04:54:04.871Z,7.65
2023-02-12T04:56:35.224Z,7.64
2023-02-12T04:59:06.131Z,7.64
2023-02-12T05:01:38.460Z,7.69
2023-02-12T05:04:10.648Z,7.75
2023-02-12T05:06:42.558Z,7.69
2023-02-12T05:09:19.422Z,7.63
2023-02-12T05:11:49.916Z,7.70
2023-02-12T05:14:20.370Z,7.69
2023-02-12T05:16:50.812Z,7.67
2023-02-12T05:19:21.083Z,7.70
2023-02-12T05:21:53.832Z,7.73
2023-02-12T05:24:26.977Z,7.71
2023-02-12T05:26:57.364Z,7.71
2023-02-12T05:29:27.684Z,7.72
2023-02-12T05:31:58.214Z,7.58
2023-02-12T05:34:28.644Z,7.62
2023-02-12T05:36:58.949Z,7.62
2023-02-12T05:39:31.925Z,7.65
2023-02-12T05:42:02.201Z,7.67
2023-02-12T05:44:32.461Z,7.64
2023-02-12T05:47:02.776Z,7.67
2023-02-12T05:49:33.491Z,7.62
2023-02-12T05:52:03.855Z,7.60
2023-02-12T05:54:37.066Z,7.63
2023-02-12T05:57:07.390Z,7.62
2023-02-12T05:59:37.668Z,7.66
2023-02-12T06:02:08.020Z,7.60
2023-02-12T06:04:38.311Z,7.63
2023-02-12T06:07:08.890Z,7.66
2023-02-12T06:09:41.820Z,7.64
2023-02-12T06:12:12.110Z,7.63
2023-02-12T06:14:44.738Z,7.66
2023-02-12T06:17:18.038Z,7.70
2023-02-12T06:19:48.337Z,7.71
2023-02-12T06:22:18.628Z,7.65
2023-02-12T06:24:51.618Z,7.67
2023-02-12T06:27:21.915Z,7.73
2023-02-12T06:29:52.352Z,7.81
2023-02-12T06:32:22.692Z,7.89
2023-02-12T06:34:53.070Z,7.93
2023-02-12T06:37:23.367Z,7.94
2023-02-12T06:39:56.346Z,7.98
2023-02-12T06:42:26.621Z,7.99
2023-02-12T06:44:56.986Z,7.97
2023-02-12T06:47:27.433Z,7.78
2023-02-12T06:49:57.915Z,7.82
2023-02-12T06:52:28.289Z,7.80
2023-02-12T06:55:01.242Z,7.73
2023-02-12T06:57:32.662Z,7.74
2023-02-12T07:00:02.993Z,7.81
2023-02-12T07:02:33.370Z,7.83
2023-02-12T07:05:03.725Z,7.79
2023-02-12T07:07:34.040Z,7.77
2023-02-12T07:10:08.854Z,7.80
2023-02-12T07:12:39.217Z,7.92
2023-02-12T07:15:10.897Z,7.90
2023-02-12T07:17:41.345Z,7.89
2023-02-12T07:20:13.412Z,7.92
2023-02-12T07:22:43.719Z,7.95
2023-02-12T07:25:16.601Z,7.90
2023-02-12T07:27:46.929Z,7.89
2023-02-12T07:30:19.827Z,7.83
2023-02-12T07:32:50.184Z,7.85
2023-02-12T07:35:20.716Z,7.85
2023-02-12T07:37:51.084Z,7.87
2023-02-12T07:40:24.178Z,7.82
2023-02-12T07:42:58.643Z,7.81
2023-02-12T07:45:29.173Z,7.91
2023-02-12T07:47:59.596Z,7.94
2023-02-12T07:50:30.104Z,7.95
2023-02-12T07:53:01.256Z,8.00
2023-02-12T07:55:34.232Z,8.04
2023-02-12T07:58:04.665Z,8.05
2023-02-12T08:00:35.147Z,8.06
2023-02-12T08:03:05.699Z,8.11
2023-02-12T08:05:36.097Z,8.09
2023-02-12T08:08:06.553Z,8.11
2023-02-12T08:10:39.737Z,8.17
2023-02-12T08:13:10.054Z,8.18
2023-02-12T08:15:40.388Z,8.25
2023-02-12T08:18:10.889Z,8.27
2023-02-12T08:20:41.256Z,8.37
2023-02-12T08:23:11.550Z,8.31
2023-02-12T08:25:44.419Z,8.32
2023-02-12T08:28:14.725Z,8.37
2023-02-12T08:30:45.239Z,8.33
2023-02-12T08:33:15.654Z,8.39
2023-02-12T08:35:45.998Z,8.41
2023-02-12T08:38:16.411Z,8.33
2023-02-12T08:40:49.400Z,8.30
2023-02-12T08:43:19.706Z,8.30
2023-02-12T08:45:50.046Z,8.33
2023-02-12T08:48:20.767Z,8.33
2023-02-12T08:50:51.251Z,8.37
2023-02-12T08:53:21.680Z,8.31
2023-02-12T08:55:55.090Z,8.32
2023-02-12T08:58:25.608Z,8.39
2023-02-12T09:00:56.099Z,8.44
2023-02-12T09:03:26.990Z,8.37
2023-02-12T09:05:57.760Z,8.38
2023-02-12T09:08:28.343Z,8.39
2023-02-12T09:11:01.447Z,8.27
2023-02-12T09:13:31.778Z,8.32
2023-02-12T09:16:05.508Z,8.35
2023-02-12T09:18:36.830Z,8.41
2023-02-12T09:21:09.837Z,8.50
2023-02-12T09:23:41.371Z,8.50
2023-02-12T09:26:18.049Z,8.46
2023-02-12T09:28:48.763Z,8.50
2023-02-12T09:31:26.560Z,8.56
2023-02-12T09:34:01.153Z,8.61
2023-02-12T09:36:31.719Z,8.66
2023-02-12T09:39:04.073Z,8.70
2023-02-12T09:42:12.843Z,8.69
2023-02-12T09:44:50.316Z,8.62
2023-02-12T09:47:27.076Z,8.68
2023-02-12T09:50:15.106Z,8.78
2023-02-12T09:52:45.908Z,8.80
2023-02-12T09:55:19.809Z,8.84
2023-02-12T09:57:54.898Z,8.87
2023-02-12T10:00:31.769Z,8.86
2023-02-12T10:03:07.350Z,8.90
2023-02-12T10:05:44.383Z,8.95
2023-02-12T10:08:31.464Z,8.94
2023-02-12T10:11:19.017Z,8.97
2023-02-12T10:14:06.079Z,8.85
2023-02-12T10:16:55.698Z,8.90
2023-02-12T10:19:41.814Z,8.91
2023-02-12T10:22:24.435Z,8.87
2023-02-12T10:25:11.174Z,8.88
2023-02-12T10:27:46.540Z,8.90
2023-02-12T10:30:27.124Z,8.80
2023-02-12T10:33:05.198Z,8.76
2023-02-12T10:35:38.049Z,8.79
2023-02-12T10:38:18.044Z,8.78
2023-02-12T10:40:50.422Z,8.74
2023-02-12T10:43:20.790Z,8.70
2023-02-12T10:45:54.053Z,8.54
2023-02-12T10:48:27.318Z,8.48
2023-02-12T10:51:39.196Z,8.52
2023-02-12T10:54:41.644Z,8.63
2023-02-12T10:57:20.783Z,8.73
2023-02-12T10:59:53.592Z,8.68
2023-02-12T11:02:30.633Z,8.78
2023-02-12T11:05:03.660Z,8.73
2023-02-12T11:07:51.307Z,8.75
2023-02-12T11:10:32.067Z,8.78
2023-02-12T11:13:03.511Z,8.84
2023-02-12T11:15:41.767Z,8.83
2023-02-12T11:18:26.438Z,8.76
2023-02-12T11:21:00.878Z,8.85
2023-02-12T11:23:34.500Z,8.86
2023-02-12T11:26:07.614Z,8.82
2023-02-12T11:28:40.475Z,8.79
2023-02-12T11:31:26.251Z,8.69
2023-02-12T11:34:19.807Z,8.71
2023-02-12T11:36:53.591Z,8.70
2023-02-12T11:39:27.609Z,8.74
2023-02-12T11:41:59.993Z,8.74
2023-02-12T11:44:35.702Z,8.82
2023-02-12T11:47:12.258Z,8.88
2023-02-12T11:49:52.472Z,8.99
2023-02-12T11:52:26.646Z,9.01
2023-02-12T11:55:01.466Z,9.07
2023-02-12T11:57:47.870Z,9.04
2023-02-12T12:00:24.107Z,9.12
2023-02-12T12:03:02.601Z,9.04
2023-02-12T12:05:41.514Z,9.04
2023-02-12T12:08:24.457Z,8.97
2023-02-12T12:11:02.994Z,8.98
2023-02-12T12:13:40.049Z,9.10
2023-02-12T12:16:28.995Z,9.10
2023-02-12T12:19:16.843Z,9.06
2023-02-12T12:21:58.791Z,8.97
2023-02-12T12:24:41.919Z,8.94
2023-02-12T12:27:47.893Z,8.89
2023-02-12T12:30:26.989Z,8.89
2023-02-12T12:33:00.905Z,8.93
2023-02-12T12:35:47.010Z,8.94
2023-02-12T12:38:35.139Z,8.88
2023-02-12T12:41:13.455Z,8.79
2023-02-12T12:44:02.142Z,8.78
2023-02-12T12:47:04.776Z,8.89
2023-02-12T12:49:53.933Z,8.87
2023-02-12T12:52:48.823Z,8.88
2023-02-12T12:55:57.740Z,8.84
2023-02-12T12:58:41.765Z,8.74
2023-02-12T13:01:48.179Z,8.74
2023-02-12T13:04:55.705Z,8.77
2023-02-12T13:07:49.357Z,8.85
2023-02-12T13:10:36.794Z,8.85
2023-02-12T13:13:29.566Z,8.89
2023-02-12T13:16:06.650Z,8.80
2023-02-12T13:18:52.972Z,8.91
2023-02-12T13:21:40.044Z,9.10
2023-02-12T13:24:24.733Z,9.40
2023-02-12T13:27:00.793Z,9.51
2023-02-12T13:29:38.153Z,9.50
2023-02-12T13:32:17.398Z,9.48
2023-02-12T13:34:48.489Z,9.41
2023-02-12T13:37:23.753Z,9.34
2023-02-12T13:39:56.192Z,9.41
2023-02-12T13:42:48.474Z,9.45
2023-02-12T13:45:33.174Z,9.67
2023-02-12T13:48:35.855Z,9.80
2023-02-12T13:51:17.619Z,9.80
2023-02-12T13:54:07.298Z,9.80
2023-02-12T13:56:44.963Z,9.83
2023-02-12T13:59:49.372Z,9.83
2023-02-12T14:02:46.529Z,9.76
2023-02-12T14:05:34.966Z,9.74
2023-02-12T14:08:09.423Z,9.72
2023-02-12T14:10:43.518Z,9.63
2023-02-12T14:13:25.376Z,9.37
2023-02-12T14:16:01.227Z,9.44
2023-02-12T14:18:35.852Z,9.49
2023-02-12T14:21:45.679Z,9.45
2023-02-12T14:24:53.092Z,9.45
2023-02-12T14:27:47.951Z,9.47
2023-02-12T14:30:40.366Z,9.51
2023-02-12T14:33:31.856Z,9.59
2023-02-12T14:36:20.965Z,9.52
2023-02-12T14:39:32.407Z,9.49
2023-02-12T14:42:47.588Z,9.41
2023-02-12T14:45:36.780Z,9.34
2023-02-12T14:48:08.812Z,9.21
2023-02-12T14:50:52.257Z,9.05
2023-02-12T14:53:40.774Z,9.15
2023-02-12T14:56:12.750Z,9.16
2023-02-12T14:58:43.396Z,8.99
2023-02-12T15:01:13.923Z,8.79
2023-02-12T15:03:50.135Z,8.73
2023-02-12T15:06:27.818Z,8.84
2023-02-12T15:09:06.148Z,8.97
2023-02-12T15:11:46.509Z,8.98
2023-02-12T15:14:23.190Z,8.98
2023-02-12T15:17:00.193Z,9.02
2023-02-12T15:19:43.168Z,9.13
2023-02-12T15:22:29.989Z,8.93
2023-02-12T15:25:18.246Z,8.80
2023-02-12T15:27:52.493Z,8.76
2023-02-12T15:30:27.049Z,8.90
2023-02-12T15:33:00.455Z,8.92
2023-02-12T15:35:33.552Z,9.03
2023-02-12T15:38:07.928Z,8.97
2023-02-12T15:40:38.555Z,8.93
2023-02-12T15:43:20.882Z,8.66
2023-02-12T15:45:55.975Z,8.62
2023-02-12T15:48:34.242Z,8.47
2023-02-12T15:51:11.985Z,8.51
2023-02-12T15:53:45.702Z,8.45
2023-02-12T15:56:19.107Z,8.39
2023-02-12T15:58:52.561Z,8.37
2023-02-12T16:01:25.597Z,8.43
2023-02-12T16:03:58.508Z,8.44
2023-02-12T16:06:34.353Z,8.40
2023-02-12T16:09:12.442Z,8.45
2023-02-12T16:11:46.287Z,8.63
2023-02-12T16:14:26.013Z,8.71
2023-02-12T16:16:58.944Z,8.76
2023-02-12T16:19:33.791Z,8.82
2023-02-12T16:22:11.646Z,8.85
2023-02-12T16:24:50.642Z,8.92
2023-02-12T16:27:24.611Z,8.96
2023-02-12T16:29:57.450Z,8.99
2023-02-12T16:32:39.319Z,9.01
2023-02-12T16:35:28.814Z,9.01
2023-02-12T16:38:05.256Z,9.03
2023-02-12T16:40:39.757Z,9.07
2023-02-12T16:43:29.449Z,9.08
2023-02-12T16:46:08.729Z,9.10
2023-02-12T16:48:44.812Z,9.08
2023-02-12T16:51:27.565Z,9.07
2023-02-12T16:54:00.310Z,9.09
2023-02-12T16:56:38.650Z,9.11
2023-02-12T16:59:10.098Z,9.12
2023-02-12T17:01:40.557Z,9.06
2023-02-12T17:04:17.583Z,9.01
2023-02-12T17:06:47.920Z,8.99
2023-02-12T17:09:18.274Z,8.95
2023-02-12T17:11:51.251Z,8.93
2023-02-12T17:14:23.504Z,8.98
2023-02-12T17:16:54.310Z,8.99
2023-02-12T17:19:24.679Z,8.97
2023-02-12T17:21:55.022Z,8.98
2023-02-12T17:24:29.449Z,8.97
2023-02-12T17:27:02.634Z,8.94
2023-02-12T17:29:33.588Z,8.92
2023-02-12T17:32:04.157Z,8.94
2023-02-12T17:34:47.630Z,8.91
2023-02-12T17:37:18.637Z,8.94
2023-02-12T17:39:49.260Z,8.95
2023-02-12T17:42:22.326Z,8.98
2023-02-12T17:44:52.708Z,9.00
2023-02-12T17:47:23.364Z,8.93
2023-02-12T17:49:53.870Z,8.86
2023-02-12T17:52:24.299Z,8.86
2023-02-12T17:54:54.664Z,8.90
2023-02-12T17:57:27.724Z,8.82
2023-02-12T17:59:58.170Z,8.75
2023-02-12T18:02:28.739Z,8.79
2023-02-12T18:04:59.218Z,8.75
2023-02-12T18:07:29.585Z,8.74
2023-02-12T18:09:59.930Z,8.78
2023-02-12T18:12:34.124Z,8.82
2023-02-12T18:15:07.895Z,8.85
2023-02-12T18:17:38.587Z,8.85
2023-02-12T18:20:11.483Z,8.77
2023-02-12T18:22:41.887Z,8.68
2023-02-12T18:25:12.336Z,8.65
2023-02-12T18:27:45.456Z,8.67
2023-02-12T18:30:18.113Z,8.74
2023-02-12T18:32:49.028Z,8.67
2023-02-12T18:35:19.693Z,8.64
2023-02-12T18:37:50.431Z,8.65
2023-02-12T18:40:21.226Z,8.59
2023-02-12T18:42:54.214Z,8.58
2023-02-12T18:45:24.561Z,8.56
2023-02-12T18:47:54.853Z,8.60
2023-02-12T18:50:25.145Z,8.63
2023-02-12T18:52:55.450Z,8.66
2023-02-12T18:55:25.838Z,8.62
2023-02-12T18:57:58.830Z,8.70
2023-02-12T19:00:29.503Z,8.70
2023-02-12T19:02:59.910Z,8.77
2023-02-12T19:05:30.380Z,8.74
2023-02-12T19:08:00.776Z,8.74
2023-02-12T19:10:31.436Z,8.75
2023-02-12T19:13:04.417Z,8.70
2023-02-12T19:15:34.833Z,8.72
2023-02-12T19:18:05.178Z,8.74
2023-02-12T19:20:36.018Z,8.69
2023-02-12T19:23:06.460Z,8.67
2023-02-12T19:25:42.810Z,8.60
2023-02-12T19:28:16.350Z,8.53
2023-02-12T19:30:46.687Z,8.49
2023-02-12T19:33:17.088Z,8.54
2023-02-12T19:35:47.403Z,8.57
2023-02-12T19:38:18.995Z,8.53
2023-02-12T19:40:49.316Z,8.60
2023-02-12T19:43:22.266Z,8.68
2023-02-12T19:45:52.613Z,8.62
2023-02-12T19:48:23.411Z,8.58
2023-02-12T19:50:53.899Z,8.62
2023-02-12T19:53:24.428Z,8.62
2023-02-12T19:55:54.872Z,8.60
2023-02-12T19:58:27.904Z,8.65
2023-02-12T20:00:58.206Z,8.68
2023-02-12T20:03:29.225Z,8.69
2023-02-12T20:06:04.387Z,8.71
2023-02-12T20:08:36.319Z,8.70
2023-02-12T20:11:09.776Z,8.72
2023-02-12T20:13:42.829Z,8.74
2023-02-12T20:16:16.127Z,8.73
2023-02-12T20:18:47.498Z,8.62
2023-02-12T20:21:21.168Z,8.53
2023-02-12T20:23:51.669Z,8.49
2023-02-12T20:26:22.532Z,8.47
2023-02-12T20:28:55.553Z,8.50
2023-02-12T20:31:31.073Z,8.52
2023-02-12T20:34:04.977Z,8.59
2023-02-12T20:36:37.192Z,8.59
2023-02-12T20:39:10.470Z,8.62
2023-02-12T20:41:41.094Z,8.66
2023-02-12T20:44:20.364Z,8.66
2023-02-12T20:46:55.720Z,8.69
2023-02-12T20:49:28.391Z,8.69
2023-02-12T20:51:58.852Z,8.65
2023-02-12T20:54:29.244Z,8.67
2023-02-12T20:56:59.594Z,8.67
2023-02-12T20:59:32.572Z,8.69
2023-02-12T21:02:03.115Z,8.66
2023-02-12T21:04:33.585Z,8.47
2023-02-12T21:07:03.952Z,8.48
2023-02-12T21:09:34.295Z,8.51
2023-02-12T21:12:04.624Z,8.41
2023-02-12T21:14:37.601Z,8.28
2023-02-12T21:17:07.963Z,8.32
2023-02-12T21:19:38.328Z,8.34
2023-02-12T21:22:08.775Z,8.30
2023-02-12T21:24:39.166Z,8.21
2023-02-12T21:27:10.986Z,8.15
2023-02-12T21:29:43.958Z,8.19
2023-02-12T21:32:14.320Z,8.15
2023-02-12T21:34:45.409Z,8.18
2023-02-12T21:37:16.916Z,8.25
2023-02-12T21:39:47.320Z,8.33
2023-02-12T21:42:17.755Z,8.36
2023-02-12T21:44:50.796Z,8.42
2023-02-12T21:47:21.141Z,8.47
2023-02-12T21:49:52.147Z,8.49
2023-02-12T21:52:22.575Z,8.49
2023-02-12T21:54:53.678Z,8.55
2023-02-12T21:57:23.694Z,8.55
2023-02-12T21:59:56.585Z,8.55
2023-02-12T22:02:27.000Z,8.57
2023-02-12T22:04:57.644Z,8.60
2023-02-12T22:07:28.106Z,8.63
2023-02-12T22:09:59.132Z,8.63
2023-02-12T22:12:32.448Z,8.63
2023-02-12T22:15:05.427Z,8.62
2023-02-12T22:17:36.252Z,8.61
2023-02-12T22:20:07.165Z,8.60
2023-02-12T22:22:37.603Z,8.54
2023-02-12T22:25:09.214Z,8.46
2023-02-12T22:27:39.582Z,8.41
2023-02-12T22:30:14.195Z,8.33
2023-02-12T22:32:44.786Z,8.32
2023-02-12T22:35:15.407Z,8.42
2023-02-12T22:37:45.902Z,8.45
2023-02-12T22:40:18.301Z,8.40
2023-02-12T22:42:48.673Z,8.22
2023-02-12T22:45:21.812Z,8.07
2023-02-12T22:47:52.156Z,7.96
2023-02-12T22:50:22.587Z,7.74
2023-02-12T22:52:52.962Z,7.57
2023-02-12T22:55:23.273Z,7.42
2023-02-12T22:57:54.067Z,7.32
2023-02-12T23:00:27.419Z,7.40
2023-02-12T23:02:57.724Z,7.62
2023-02-12T23:05:28.288Z,7.80
2023-02-12T23:07:58.718Z,7.94
2023-02-12T23:10:29.178Z,7.82
2023-02-12T23:12:59.595Z,7.89
2023-02-12T23:15:33.121Z,7.78
2023-02-12T23:18:03.468Z,7.75
2023-02-12T23:20:33.831Z,7.78
2023-02-12T23:23:04.156Z,7.75
2023-02-12T23:25:34.523Z,7.69
2023-02-12T23:28:04.919Z,7.61
2023-02-12T23:30:38.130Z,7.57
2023-02-12T23:33:09.599Z,7.72
2023-02-12T23:35:40.054Z,7.79
2023-02-12T23:38:10.523Z,7.77
2023-02-12T23:40:41.299Z,7.80
2023-02-12T23:43:12.029Z,7.81
2023-02-12T23:45:46.955Z,7.76
2023-02-12T23:48:18.220Z,7.72
2023-02-12T23:50:50.103Z,7.65
2023-02-12T23:53:20.741Z,7.64
2023-02-12T23:55:53.309Z,7.60
2023-02-12T23:58:23.598Z,7.60
